sensor_id;sensor_type;location;lat;lon;timestamp;pressure;altitude;pressure_sealevel;temperature;humidity
77212;BME280;66206;0.000;0.000;2023-07-13T00:01:37;97703.53;;;29.74;25.08
77212;BME280;66206;0.000;0.000;2023-07-13T00:04:04;97696.51;;;29.62;25.18
77212;BME280;66206;0.000;0.000;2023-07-13T00:06:30;97689.01;;;29.74;25.13
77212;BME280;66206;0.000;0.000;2023-07-13T00:08:57;97689.51;;;29.78;25.05
77212;BME280;66206;0.000;0.000;2023-07-13T00:11:24;97683.16;;;29.70;25.05
77212;BME280;66206;0.000;0.000;2023-07-13T00:13:50;97664.89;;;30.02;24.89
77212;BME280;66206;0.000;0.000;2023-07-13T00:16:17;97664.05;;;29.60;25.20
77212;BME280;66206;0.000;0.000;2023-07-13T00:18:44;97666.33;;;29.61;25.27
77212;BME280;66206;0.000;0.000;2023-07-13T00:21:11;97662.28;;;29.64;25.20
77212;BME280;66206;0.000;0.000;2023-07-13T00:23:38;97659.23;;;29.76;25.15
77212;BME280;66206;0.000;0.000;2023-07-13T00:26:06;97656.94;;;29.34;25.43
77212;BME280;66206;0.000;0.000;2023-07-13T00:28:33;97654.08;;;29.55;25.15
77212;BME280;66206;0.000;0.000;2023-07-13T00:31:00;97658.63;;;29.71;25.14
77212;BME280;66206;0.000;0.000;2023-07-13T00:33:27;97664.10;;;29.77;25.09
77212;BME280;66206;0.000;0.000;2023-07-13T00:35:54;97666.00;;;29.87;24.94
77212;BME280;66206;0.000;0.000;2023-07-13T00:38:21;97675.55;;;29.78;25.17
77212;BME280;66206;0.000;0.000;2023-07-13T00:40:48;97678.33;;;29.75;25.15
77212;BME280;66206;0.000;0.000;2023-07-13T00:43:16;97675.60;;;29.86;24.97
77212;BME280;66206;0.000;0.000;2023-07-13T00:46:47;97683.76;;;29.72;25.10
77212;BME280;66206;0.000;0.000;2023-07-13T00:48:11;97689.04;;;29.94;24.97
77212;BME280;66206;0.000;0.000;2023-07-13T00:50:39;97694.72;;;29.88;24.99
77212;BME280;66206;0.000;0.000;2023-07-13T00:53:06;97694.86;;;29.87;24.99
77212;BME280;66206;0.000;0.000;2023-07-13T00:55:34;97699.65;;;29.77;25.07
77212;BME280;66206;0.000;0.000;2023-07-13T00:58:01;97703.31;;;29.87;25.00
77212;BME280;66206;0.000;0.000;2023-07-13T01:00:28;97704.04;;;29.75;25.13
77212;BME280;66206;0.000;0.000;2023-07-13T01:02:55;97701.85;;;29.73;25.01
77212;BME280;66206;0.000;0.000;2023-07-13T01:05:23;97697.44;;;29.77;24.99
77212;BME280;66206;0.000;0.000;2023-07-13T01:07:51;97694.32;;;29.66;25.01
77212;BME280;66206;0.000;0.000;2023-07-13T01:10:21;97685.26;;;29.60;25.06
77212;BME280;66206;0.000;0.000;2023-07-13T01:12:48;97687.44;;;29.65;24.97
77212;BME280;66206;0.000;0.000;2023-07-13T01:15:39;97686.53;;;29.64;25.00
77212;BME280;66206;0.000;0.000;2023-07-13T01:17:40;97686.36;;;29.82;24.78
77212;BME280;66206;0.000;0.000;2023-07-13T01:20:07;97682.94;;;29.50;24.97
77212;BME280;66206;0.000;0.000;2023-07-13T01:22:34;97679.46;;;29.61;24.95
77212;BME280;66206;0.000;0.000;2023-07-13T01:25:01;97679.76;;;29.86;24.66
77212;BME280;66206;0.000;0.000;2023-07-13T01:27:28;97685.68;;;29.81;24.74
77212;BME280;66206;0.000;0.000;2023-07-13T01:29:54;97690.89;;;29.79;24.70
77212;BME280;66206;0.000;0.000;2023-07-13T01:32:22;97690.19;;;29.62;24.85
77212;BME280;66206;0.000;0.000;2023-07-13T01:34:49;97687.52;;;29.88;24.60
77212;BME280;66206;0.000;0.000;2023-07-13T01:37:16;97685.40;;;29.68;24.73
77212;BME280;66206;0.000;0.000;2023-07-13T01:39:43;97684.80;;;29.56;24.98
77212;BME280;66206;0.000;0.000;2023-07-13T01:42:10;97687.35;;;29.77;24.85
77212;BME280;66206;0.000;0.000;2023-07-13T01:44:36;97684.40;;;29.57;24.95
77212;BME280;66206;0.000;0.000;2023-07-13T01:47:03;97674.32;;;29.40;25.08
77212;BME280;66206;0.000;0.000;2023-07-13T01:49:30;97669.90;;;29.45;25.01
77212;BME280;66206;0.000;0.000;2023-07-13T01:51:57;97670.89;;;29.35;25.07
77212;BME280;66206;0.000;0.000;2023-07-13T01:54:24;97673.45;;;29.32;25.09
77212;BME280;66206;0.000;0.000;2023-07-13T01:56:50;97676.78;;;29.23;25.06
77212;BME280;66206;0.000;0.000;2023-07-13T01:59:17;97675.01;;;29.34;24.92
77212;BME280;66206;0.000;0.000;2023-07-13T02:01:43;97682.19;;;29.20;24.95
77212;BME280;66206;0.000;0.000;2023-07-13T02:04:10;97682.86;;;29.26;24.87
77212;BME280;66206;0.000;0.000;2023-07-13T02:06:37;97691.67;;;29.44;24.75
77212;BME280;66206;0.000;0.000;2023-07-13T02:09:03;97691.46;;;29.46;24.74
77212;BME280;66206;0.000;0.000;2023-07-13T02:11:30;97686.99;;;29.27;24.80
77212;BME280;66206;0.000;0.000;2023-07-13T02:13:56;97683.54;;;29.37;24.67
77212;BME280;66206;0.000;0.000;2023-07-13T02:16:23;97679.40;;;29.48;24.59
77212;BME280;66206;0.000;0.000;2023-07-13T02:18:50;97684.84;;;29.27;24.61
77212;BME280;66206;0.000;0.000;2023-07-13T02:21:16;97683.13;;;29.38;24.63
77212;BME280;66206;0.000;0.000;2023-07-13T02:23:43;97684.40;;;29.27;24.69
77212;BME280;66206;0.000;0.000;2023-07-13T02:26:10;97690.84;;;29.23;24.82
77212;BME280;66206;0.000;0.000;2023-07-13T02:28:36;97689.30;;;29.20;24.71
77212;BME280;66206;0.000;0.000;2023-07-13T02:31:05;97685.74;;;29.04;24.76
77212;BME280;66206;0.000;0.000;2023-07-13T02:33:31;97690.61;;;29.15;24.71
77212;BME280;66206;0.000;0.000;2023-07-13T02:35:58;97691.82;;;29.17;24.57
77212;BME280;66206;0.000;0.000;2023-07-13T02:38:24;97691.71;;;29.00;24.67
77212;BME280;66206;0.000;0.000;2023-07-13T02:40:51;97699.81;;;29.17;24.56
77212;BME280;66206;0.000;0.000;2023-07-13T02:43:18;97696.30;;;29.07;24.56
77212;BME280;66206;0.000;0.000;2023-07-13T02:45:44;97694.02;;;29.17;24.44
77212;BME280;66206;0.000;0.000;2023-07-13T02:48:13;97697.91;;;29.03;24.52
77212;BME280;66206;0.000;0.000;2023-07-13T02:50:40;97699.38;;;28.79;24.63
77212;BME280;66206;0.000;0.000;2023-07-13T02:53:07;97698.94;;;28.88;24.53
77212;BME280;66206;0.000;0.000;2023-07-13T02:55:33;97701.09;;;28.86;24.65
77212;BME280;66206;0.000;0.000;2023-07-13T02:58:00;97703.38;;;28.76;24.68
77212;BME280;66206;0.000;0.000;2023-07-13T03:00:27;97709.82;;;28.82;24.61
77212;BME280;66206;0.000;0.000;2023-07-13T03:02:53;97708.65;;;28.88;24.51
77212;BME280;66206;0.000;0.000;2023-07-13T03:05:20;97710.16;;;29.09;24.28
77212;BME280;66206;0.000;0.000;2023-07-13T03:07:47;97714.78;;;28.96;24.36
77212;BME280;66206;0.000;0.000;2023-07-13T03:10:13;97719.91;;;29.21;24.25
77212;BME280;66206;0.000;0.000;2023-07-13T03:12:40;97719.95;;;29.19;24.18
77212;BME280;66206;0.000;0.000;2023-07-13T03:15:06;97719.91;;;28.90;24.34
77212;BME280;66206;0.000;0.000;2023-07-13T03:17:33;97730.14;;;29.01;24.28
77212;BME280;66206;0.000;0.000;2023-07-13T03:20:00;97732.07;;;28.50;24.62
77212;BME280;66206;0.000;0.000;2023-07-13T03:22:26;97738.65;;;28.83;24.35
77212;BME280;66206;0.000;0.000;2023-07-13T03:24:54;97739.37;;;28.86;24.39
77212;BME280;66206;0.000;0.000;2023-07-13T03:27:21;97745.54;;;28.83;24.28
77212;BME280;66206;0.000;0.000;2023-07-13T03:29:47;97750.24;;;28.92;24.16
77212;BME280;66206;0.000;0.000;2023-07-13T03:32:14;97750.02;;;28.77;24.29
77212;BME280;66206;0.000;0.000;2023-07-13T03:34:41;97749.78;;;28.99;24.18
77212;BME280;66206;0.000;0.000;2023-07-13T03:37:07;97759.34;;;28.86;24.35
77212;BME280;66206;0.000;0.000;2023-07-13T03:39:34;97763.67;;;28.46;24.53
77212;BME280;66206;0.000;0.000;2023-07-13T03:42:01;97767.76;;;28.74;24.26
77212;BME280;66206;0.000;0.000;2023-07-13T03:44:27;97770.15;;;28.88;24.14
77212;BME280;66206;0.000;0.000;2023-07-13T03:46:54;97764.93;;;29.03;23.99
77212;BME280;66206;0.000;0.000;2023-07-13T03:49:20;97769.76;;;28.79;24.03
77212;BME280;66206;0.000;0.000;2023-07-13T03:51:47;97769.84;;;28.91;24.07
77212;BME280;66206;0.000;0.000;2023-07-13T03:54:14;97773.39;;;28.76;24.15
77212;BME280;66206;0.000;0.000;2023-07-13T03:56:40;97776.16;;;28.73;24.12
77212;BME280;66206;0.000;0.000;2023-07-13T03:59:07;97774.79;;;29.01;23.95
77212;BME280;66206;0.000;0.000;2023-07-13T04:01:34;97779.73;;;28.67;23.98
77212;BME280;66206;0.000;0.000;2023-07-13T04:04:00;97782.26;;;28.92;23.87
77212;BME280;66206;0.000;0.000;2023-07-13T04:06:28;97790.92;;;28.91;23.86
77212;BME280;66206;0.000;0.000;2023-07-13T04:08:55;97797.91;;;28.73;23.99
77212;BME280;66206;0.000;0.000;2023-07-13T04:11:23;97805.86;;;28.64;24.02
77212;BME280;66206;0.000;0.000;2023-07-13T04:13:50;97810.81;;;28.81;23.90
77212;BME280;66206;0.000;0.000;2023-07-13T04:16:17;97810.91;;;28.57;23.89
77212;BME280;66206;0.000;0.000;2023-07-13T04:18:44;97808.40;;;28.69;23.92
77212;BME280;66206;0.000;0.000;2023-07-13T04:21:11;97802.17;;;28.56;23.96
77212;BME280;66206;0.000;0.000;2023-07-13T04:23:38;97798.77;;;28.62;23.83
77212;BME280;66206;0.000;0.000;2023-07-13T04:26:05;97791.90;;;28.66;23.80
77212;BME280;66206;0.000;0.000;2023-07-13T04:28:33;97792.33;;;28.35;23.84
77212;BME280;66206;0.000;0.000;2023-07-13T04:30:59;97798.08;;;28.38;23.85
77212;BME280;66206;0.000;0.000;2023-07-13T04:33:26;97799.61;;;28.43;23.67
77212;BME280;66206;0.000;0.000;2023-07-13T04:35:54;97802.90;;;28.45;23.73
77212;BME280;66206;0.000;0.000;2023-07-13T04:38:21;97803.44;;;28.92;23.46
77212;BME280;66206;0.000;0.000;2023-07-13T04:40:48;97809.02;;;28.67;23.50
77212;BME280;66206;0.000;0.000;2023-07-13T04:43:14;97811.37;;;28.96;23.38
77212;BME280;66206;0.000;0.000;2023-07-13T04:45:41;97812.45;;;28.81;23.44
77212;BME280;66206;0.000;0.000;2023-07-13T04:48:08;97812.34;;;28.62;23.49
77212;BME280;66206;0.000;0.000;2023-07-13T04:50:35;97814.54;;;28.38;23.69
77212;BME280;66206;0.000;0.000;2023-07-13T04:53:02;97812.67;;;28.38;23.70
77212;BME280;66206;0.000;0.000;2023-07-13T04:55:29;97813.26;;;28.52;23.69
77212;BME280;66206;0.000;0.000;2023-07-13T04:57:56;97812.97;;;28.38;23.76
77212;BME280;66206;0.000;0.000;2023-07-13T05:00:23;97816.89;;;28.44;23.65
77212;BME280;66206;0.000;0.000;2023-07-13T05:02:49;97821.01;;;28.57;23.59
77212;BME280;66206;0.000;0.000;2023-07-13T05:05:16;97826.89;;;28.61;23.52
77212;BME280;66206;0.000;0.000;2023-07-13T05:07:43;97827.33;;;28.67;23.70
77212;BME280;66206;0.000;0.000;2023-07-13T05:10:09;97830.73;;;28.43;23.69
77212;BME280;66206;0.000;0.000;2023-07-13T05:12:36;97832.36;;;28.57;23.47
77212;BME280;66206;0.000;0.000;2023-07-13T05:15:03;97832.88;;;28.41;23.82
77212;BME280;66206;0.000;0.000;2023-07-13T05:17:30;97831.99;;;28.53;23.66
77212;BME280;66206;0.000;0.000;2023-07-13T05:19:57;97837.95;;;28.47;23.69
77212;BME280;66206;0.000;0.000;2023-07-13T05:22:23;97841.34;;;28.73;23.42
77212;BME280;66206;0.000;0.000;2023-07-13T05:24:50;97847.00;;;28.88;23.27
77212;BME280;66206;0.000;0.000;2023-07-13T05:27:16;97847.99;;;28.63;23.33
77212;BME280;66206;0.000;0.000;2023-07-13T05:29:43;97850.19;;;28.59;23.44
77212;BME280;66206;0.000;0.000;2023-07-13T05:32:10;97851.53;;;28.67;23.44
77212;BME280;66206;0.000;0.000;2023-07-13T05:34:36;97848.37;;;28.51;23.49
77212;BME280;66206;0.000;0.000;2023-07-13T05:37:03;97847.31;;;28.75;23.34
77212;BME280;66206;0.000;0.000;2023-07-13T05:39:30;97843.12;;;28.51;23.54
77212;BME280;66206;0.000;0.000;2023-07-13T05:41:56;97845.77;;;28.59;23.51
77212;BME280;66206;0.000;0.000;2023-07-13T05:44:23;97848.70;;;28.55;23.59
77212;BME280;66206;0.000;0.000;2023-07-13T05:46:50;97853.11;;;28.62;23.38
77212;BME280;66206;0.000;0.000;2023-07-13T05:49:16;97855.24;;;28.60;23.41
77212;BME280;66206;0.000;0.000;2023-07-13T05:51:43;97859.27;;;28.87;23.26
77212;BME280;66206;0.000;0.000;2023-07-13T05:54:09;97857.94;;;28.52;23.43
77212;BME280;66206;0.000;0.000;2023-07-13T05:56:36;97860.82;;;28.53;23.45
77212;BME280;66206;0.000;0.000;2023-07-13T05:59:03;97859.49;;;28.73;23.34
77212;BME280;66206;0.000;0.000;2023-07-13T06:01:30;97864.04;;;28.49;23.44
77212;BME280;66206;0.000;0.000;2023-07-13T06:03:57;97863.09;;;28.48;23.46
77212;BME280;66206;0.000;0.000;2023-07-13T06:06:23;97864.27;;;28.44;23.50
77212;BME280;66206;0.000;0.000;2023-07-13T06:08:50;97866.95;;;28.67;23.36
77212;BME280;66206;0.000;0.000;2023-07-13T06:11:17;97869.59;;;28.74;23.33
77212;BME280;66206;0.000;0.000;2023-07-13T06:13:44;97868.79;;;28.41;23.43
77212;BME280;66206;0.000;0.000;2023-07-13T06:16:11;97872.87;;;28.40;23.44
77212;BME280;66206;0.000;0.000;2023-07-13T06:18:38;97872.43;;;28.47;23.50
77212;BME280;66206;0.000;0.000;2023-07-13T06:21:05;97872.68;;;28.45;23.45
77212;BME280;66206;0.000;0.000;2023-07-13T06:23:32;97879.22;;;28.47;23.36
77212;BME280;66206;0.000;0.000;2023-07-13T06:25:59;97879.55;;;28.37;23.49
77212;BME280;66206;0.000;0.000;2023-07-13T06:28:25;97881.18;;;28.38;23.52
77212;BME280;66206;0.000;0.000;2023-07-13T06:30:52;97878.31;;;28.16;23.53
77212;BME280;66206;0.000;0.000;2023-07-13T06:33:18;97880.11;;;28.05;23.63
77212;BME280;66206;0.000;0.000;2023-07-13T06:35:45;97882.35;;;27.98;23.70
77212;BME280;66206;0.000;0.000;2023-07-13T06:38:12;97880.77;;;27.87;23.74
77212;BME280;66206;0.000;0.000;2023-07-13T06:40:38;97889.24;;;28.40;23.37
77212;BME280;66206;0.000;0.000;2023-07-13T06:43:05;97893.04;;;28.52;23.25
77212;BME280;66206;0.000;0.000;2023-07-13T06:45:32;97895.34;;;28.48;23.24
77212;BME280;66206;0.000;0.000;2023-07-13T06:47:59;97900.75;;;28.44;23.22
77212;BME280;66206;0.000;0.000;2023-07-13T06:50:26;97900.65;;;28.35;23.37
77212;BME280;66206;0.000;0.000;2023-07-13T06:52:52;97904.79;;;28.66;23.11
77212;BME280;66206;0.000;0.000;2023-07-13T06:55:19;97905.85;;;28.69;23.15
77212;BME280;66206;0.000;0.000;2023-07-13T06:57:46;97905.79;;;28.36;23.17
77212;BME280;66206;0.000;0.000;2023-07-13T07:00:13;97904.91;;;28.56;23.04
77212;BME280;66206;0.000;0.000;2023-07-13T07:02:40;97908.66;;;28.56;23.19
77212;BME280;66206;0.000;0.000;2023-07-13T07:05:06;97907.76;;;28.34;23.30
77212;BME280;66206;0.000;0.000;2023-07-13T07:07:33;97912.95;;;28.54;23.32
77212;BME280;66206;0.000;0.000;2023-07-13T07:09:59;97915.51;;;28.50;23.19
77212;BME280;66206;0.000;0.000;2023-07-13T07:12:26;97918.39;;;28.51;23.24
77212;BME280;66206;0.000;0.000;2023-07-13T07:14:53;97919.74;;;28.54;23.25
77212;BME280;66206;0.000;0.000;2023-07-13T07:17:20;97919.29;;;28.52;23.32
77212;BME280;66206;0.000;0.000;2023-07-13T07:19:46;97923.61;;;28.38;23.43
77212;BME280;66206;0.000;0.000;2023-07-13T07:22:13;97924.60;;;28.23;23.41
77212;BME280;66206;0.000;0.000;2023-07-13T07:24:40;97923.73;;;28.49;23.24
77212;BME280;66206;0.000;0.000;2023-07-13T07:27:06;97930.34;;;28.71;22.97
77212;BME280;66206;0.000;0.000;2023-07-13T07:29:33;97930.12;;;28.88;22.88
77212;BME280;66206;0.000;0.000;2023-07-13T07:32:00;97929.56;;;29.15;23.00
77212;BME280;66206;0.000;0.000;2023-07-13T07:34:27;97933.08;;;28.87;23.30
77212;BME280;66206;0.000;0.000;2023-07-13T07:36:54;97936.57;;;28.63;23.24
77212;BME280;66206;0.000;0.000;2023-07-13T07:39:21;97939.93;;;28.51;23.44
77212;BME280;66206;0.000;0.000;2023-07-13T07:41:48;97936.44;;;28.78;23.37
77212;BME280;66206;0.000;0.000;2023-07-13T07:44:15;97934.83;;;28.56;23.48
77212;BME280;66206;0.000;0.000;2023-07-13T07:46:42;97941.19;;;28.29;23.41
77212;BME280;66206;0.000;0.000;2023-07-13T07:49:08;97943.48;;;28.58;23.28
77212;BME280;66206;0.000;0.000;2023-07-13T07:51:36;97941.53;;;28.05;23.75
77212;BME280;66206;0.000;0.000;2023-07-13T07:54:02;97948.28;;;26.57;25.11
77212;BME280;66206;0.000;0.000;2023-07-13T07:56:30;97953.21;;;26.23;25.53
77212;BME280;66206;0.000;0.000;2023-07-13T07:58:57;97955.46;;;25.09;26.73
77212;BME280;66206;0.000;0.000;2023-07-13T08:01:24;97959.57;;;25.63;26.27
77212;BME280;66206;0.000;0.000;2023-07-13T08:03:51;97961.18;;;27.05;24.69
77212;BME280;66206;0.000;0.000;2023-07-13T08:06:18;97961.98;;;27.70;24.00
77212;BME280;66206;0.000;0.000;2023-07-13T08:08:45;97953.51;;;27.82;23.72
77212;BME280;66206;0.000;0.000;2023-07-13T08:11:12;97949.53;;;28.53;23.41
77212;BME280;66206;0.000;0.000;2023-07-13T08:13:39;97952.27;;;28.28;23.38
77212;BME280;66206;0.000;0.000;2023-07-13T08:16:06;97950.55;;;28.23;23.49
77212;BME280;66206;0.000;0.000;2023-07-13T08:18:33;97951.97;;;28.35;23.06
77212;BME280;66206;0.000;0.000;2023-07-13T08:21:03;97956.22;;;28.25;23.06
77212;BME280;66206;0.000;0.000;2023-07-13T08:23:30;97960.34;;;28.23;22.83
77212;BME280;66206;0.000;0.000;2023-07-13T08:25:57;97961.10;;;28.25;22.89
77212;BME280;66206;0.000;0.000;2023-07-13T08:28:24;97959.38;;;28.49;22.66
77212;BME280;66206;0.000;0.000;2023-07-13T08:30:52;97959.12;;;28.50;22.21
77212;BME280;66206;0.000;0.000;2023-07-13T08:33:20;97960.76;;;28.51;22.47
77212;BME280;66206;0.000;0.000;2023-07-13T08:35:47;97961.76;;;28.83;22.08
77212;BME280;66206;0.000;0.000;2023-07-13T08:38:14;97960.17;;;28.69;21.78
77212;BME280;66206;0.000;0.000;2023-07-13T08:40:42;97959.36;;;28.63;21.47
77212;BME280;66206;0.000;0.000;2023-07-13T08:43:12;97956.97;;;28.62;21.44
77212;BME280;66206;0.000;0.000;2023-07-13T08:45:37;97958.96;;;28.38;21.63
77212;BME280;66206;0.000;0.000;2023-07-13T08:48:01;97969.23;;;28.51;21.28
77212;BME280;66206;0.000;0.000;2023-07-13T08:50:31;97970.02;;;28.82;20.69
77212;BME280;66206;0.000;0.000;2023-07-13T08:53:00;97978.96;;;28.65;20.74
77212;BME280;66206;0.000;0.000;2023-07-13T08:55:29;97979.51;;;28.60;20.16
77212;BME280;66206;0.000;0.000;2023-07-13T08:57:59;97981.51;;;28.43;20.16
77212;BME280;66206;0.000;0.000;2023-07-13T09:00:24;97984.17;;;28.89;20.01
77212;BME280;66206;0.000;0.000;2023-07-13T09:02:54;97980.75;;;28.80;20.11
77212;BME280;66206;0.000;0.000;2023-07-13T09:05:24;97982.13;;;28.41;20.26
77212;BME280;66206;0.000;0.000;2023-07-13T09:07:58;97982.80;;;28.68;19.94
77212;BME280;66206;0.000;0.000;2023-07-13T09:10:20;97982.98;;;28.56;19.98
77212;BME280;66206;0.000;0.000;2023-07-13T09:12:46;97985.62;;;28.58;19.91
77212;BME280;66206;0.000;0.000;2023-07-13T09:15:17;97980.92;;;28.57;19.97
77212;BME280;66206;0.000;0.000;2023-07-13T09:17:39;97985.63;;;28.79;19.97
77212;BME280;66206;0.000;0.000;2023-07-13T09:20:04;97981.98;;;28.78;19.99
77212;BME280;66206;0.000;0.000;2023-07-13T09:22:28;97980.80;;;28.78;20.07
77212;BME280;66206;0.000;0.000;2023-07-13T09:24:58;97982.23;;;29.02;19.99
77212;BME280;66206;0.000;0.000;2023-07-13T09:27:22;97985.36;;;28.75;20.13
77212;BME280;66206;0.000;0.000;2023-07-13T09:29:50;97988.02;;;28.66;20.22
77212;BME280;66206;0.000;0.000;2023-07-13T09:32:15;97994.24;;;28.44;20.18
77212;BME280;66206;0.000;0.000;2023-07-13T09:34:47;97994.93;;;28.75;20.05
77212;BME280;66206;0.000;0.000;2023-07-13T09:37:11;97992.27;;;28.74;19.96
77212;BME280;66206;0.000;0.000;2023-07-13T09:39:38;97993.34;;;28.76;20.13
77212;BME280;66206;0.000;0.000;2023-07-13T09:42:07;97989.36;;;28.75;20.04
77212;BME280;66206;0.000;0.000;2023-07-13T09:44:34;97983.69;;;28.88;19.95
77212;BME280;66206;0.000;0.000;2023-07-13T09:47:01;97979.66;;;28.64;19.89
77212;BME280;66206;0.000;0.000;2023-07-13T09:49:29;97989.76;;;28.39;19.58
77212;BME280;66206;0.000;0.000;2023-07-13T09:51:58;97985.56;;;28.74;19.48
77212;BME280;66206;0.000;0.000;2023-07-13T09:54:25;97978.81;;;29.04;19.35
77212;BME280;66206;0.000;0.000;2023-07-13T09:56:54;97976.85;;;28.64;19.20
77212;BME280;66206;0.000;0.000;2023-07-13T09:59:21;97984.91;;;28.64;18.96
77212;BME280;66206;0.000;0.000;2023-07-13T10:01:48;97981.49;;;28.59;18.65
77212;BME280;66206;0.000;0.000;2023-07-13T10:04:17;97981.52;;;28.39;18.65
77212;BME280;66206;0.000;0.000;2023-07-13T10:06:44;97984.70;;;28.37;18.59
77212;BME280;66206;0.000;0.000;2023-07-13T10:09:14;97977.90;;;28.41;19.08
77212;BME280;66206;0.000;0.000;2023-07-13T10:11:41;97980.92;;;28.44;18.76
77212;BME280;66206;0.000;0.000;2023-07-13T10:14:11;97990.14;;;28.71;18.61
77212;BME280;66206;0.000;0.000;2023-07-13T10:16:34;97991.21;;;28.68;18.54
77212;BME280;66206;0.000;0.000;2023-07-13T10:19:02;97993.46;;;28.67;18.76
77212;BME280;66206;0.000;0.000;2023-07-13T10:21:32;97989.65;;;28.68;18.50
77212;BME280;66206;0.000;0.000;2023-07-13T10:24:02;97992.38;;;28.87;18.56
77212;BME280;66206;0.000;0.000;2023-07-13T10:26:27;97992.55;;;29.05;18.38
77212;BME280;66206;0.000;0.000;2023-07-13T10:28:52;97991.92;;;28.85;18.53
77212;BME280;66206;0.000;0.000;2023-07-13T10:31:19;97992.13;;;28.68;18.34
77212;BME280;66206;0.000;0.000;2023-07-13T10:33:47;97992.61;;;28.76;18.58
77212;BME280;66206;0.000;0.000;2023-07-13T10:36:16;97998.08;;;28.73;18.62
77212;BME280;66206;0.000;0.000;2023-07-13T10:38:44;97999.47;;;28.81;18.58
77212;BME280;66206;0.000;0.000;2023-07-13T10:41:15;98001.51;;;28.68;18.62
77212;BME280;66206;0.000;0.000;2023-07-13T10:43:42;97989.77;;;28.76;18.69
77212;BME280;66206;0.000;0.000;2023-07-13T10:46:11;98000.82;;;28.96;18.62
77212;BME280;66206;0.000;0.000;2023-07-13T10:48:39;97998.90;;;28.73;18.70
77212;BME280;66206;0.000;0.000;2023-07-13T10:51:06;97998.47;;;28.64;18.67
77212;BME280;66206;0.000;0.000;2023-07-13T10:53:34;97985.92;;;28.85;18.42
77212;BME280;66206;0.000;0.000;2023-07-13T10:56:02;97992.29;;;28.91;18.35
77212;BME280;66206;0.000;0.000;2023-07-13T10:58:32;98001.56;;;28.47;18.72
77212;BME280;66206;0.000;0.000;2023-07-13T11:01:03;97987.82;;;28.79;18.49
77212;BME280;66206;0.000;0.000;2023-07-13T11:03:25;97988.05;;;28.68;18.55
77212;BME280;66206;0.000;0.000;2023-07-13T11:06:04;97991.87;;;28.88;18.48
77212;BME280;66206;0.000;0.000;2023-07-13T11:08:32;97989.36;;;29.06;18.41
77212;BME280;66206;0.000;0.000;2023-07-13T11:10:51;97994.21;;;28.85;18.51
77212;BME280;66206;0.000;0.000;2023-07-13T11:15:31;97998.24;;;28.76;18.66
77212;BME280;66206;0.000;0.000;2023-07-13T11:18:02;97992.67;;;28.76;18.84
77212;BME280;66206;0.000;0.000;2023-07-13T11:20:39;97987.81;;;28.59;18.89
77212;BME280;66206;0.000;0.000;2023-07-13T11:22:51;97978.96;;;28.52;18.92
77212;BME280;66206;0.000;0.000;2023-07-13T11:25:25;97982.02;;;28.63;18.74
77212;BME280;66206;0.000;0.000;2023-07-13T11:27:49;97974.74;;;28.94;18.62
77212;BME280;66206;0.000;0.000;2023-07-13T11:30:22;97970.81;;;28.86;18.69
77212;BME280;66206;0.000;0.000;2023-07-13T11:32:44;97973.65;;;28.88;18.63
77212;BME280;66206;0.000;0.000;2023-07-13T11:35:13;97971.00;;;28.68;18.73
77212;BME280;66206;0.000;0.000;2023-07-13T11:37:41;97977.44;;;28.97;18.63
77212;BME280;66206;0.000;0.000;2023-07-13T11:40:11;97972.52;;;29.06;18.63
77212;BME280;66206;0.000;0.000;2023-07-13T11:42:34;97968.15;;;29.32;18.38
77212;BME280;66206;0.000;0.000;2023-07-13T11:45:01;97969.01;;;28.99;18.55
77212;BME280;66206;0.000;0.000;2023-07-13T11:47:28;97966.47;;;28.90;18.54
77212;BME280;66206;0.000;0.000;2023-07-13T11:49:56;97964.28;;;28.55;18.79
77212;BME280;66206;0.000;0.000;2023-07-13T11:52:23;97966.03;;;29.02;18.45
77212;BME280;66206;0.000;0.000;2023-07-13T11:54:49;97967.28;;;28.68;18.74
77212;BME280;66206;0.000;0.000;2023-07-13T11:57:20;97970.88;;;28.53;18.84
77212;BME280;66206;0.000;0.000;2023-07-13T11:59:45;97969.53;;;28.68;18.71
77212;BME280;66206;0.000;0.000;2023-07-13T12:02:14;97972.58;;;28.83;18.70
77212;BME280;66206;0.000;0.000;2023-07-13T12:04:37;97974.44;;;28.73;18.83
77212;BME280;66206;0.000;0.000;2023-07-13T12:07:05;97975.72;;;28.80;18.80
77212;BME280;66206;0.000;0.000;2023-07-13T12:09:32;97970.73;;;29.10;18.79
77212;BME280;66206;0.000;0.000;2023-07-13T12:12:00;97972.47;;;29.07;18.74
77212;BME280;66206;0.000;0.000;2023-07-13T12:14:26;97970.65;;;28.64;19.06
77212;BME280;66206;0.000;0.000;2023-07-13T12:16:53;97974.00;;;29.38;18.70
77212;BME280;66206;0.000;0.000;2023-07-13T12:19:21;97977.30;;;29.11;19.12
77212;BME280;66206;0.000;0.000;2023-07-13T12:21:50;97983.25;;;29.01;19.27
77212;BME280;66206;0.000;0.000;2023-07-13T12:24:18;97974.84;;;29.14;19.04
77212;BME280;66206;0.000;0.000;2023-07-13T12:26:50;97976.38;;;28.94;19.14
77212;BME280;66206;0.000;0.000;2023-07-13T12:29:15;97968.53;;;29.27;18.88
77212;BME280;66206;0.000;0.000;2023-07-13T12:31:43;97967.41;;;29.51;18.91
77212;BME280;66206;0.000;0.000;2023-07-13T12:34:11;97971.84;;;29.70;18.87
77212;BME280;66206;0.000;0.000;2023-07-13T12:36:39;97969.59;;;29.36;19.09
77212;BME280;66206;0.000;0.000;2023-07-13T12:39:12;97967.09;;;29.32;19.08
77212;BME280;66206;0.000;0.000;2023-07-13T12:41:34;97960.60;;;29.19;19.18
77212;BME280;66206;0.000;0.000;2023-07-13T12:44:01;97965.43;;;29.45;19.08
77212;BME280;66206;0.000;0.000;2023-07-13T12:46:28;97966.16;;;29.78;18.61
77212;BME280;66206;0.000;0.000;2023-07-13T12:48:56;97977.32;;;29.55;18.48
77212;BME280;66206;0.000;0.000;2023-07-13T12:51:24;97976.63;;;29.11;18.79
77212;BME280;66206;0.000;0.000;2023-07-13T12:53:56;97965.91;;;28.92;19.02
77212;BME280;66206;0.000;0.000;2023-07-13T12:56:19;97965.67;;;29.02;19.03
77212;BME280;66206;0.000;0.000;2023-07-13T12:58:47;97972.13;;;28.89;19.31
77212;BME280;66206;0.000;0.000;2023-07-13T13:01:15;97968.56;;;29.06;19.37
77212;BME280;66206;0.000;0.000;2023-07-13T13:03:45;97966.48;;;29.10;19.32
77212;BME280;66206;0.000;0.000;2023-07-13T13:06:20;97960.95;;;29.24;19.35
77212;BME280;66206;0.000;0.000;2023-07-13T13:08:37;97963.85;;;29.06;19.25
77212;BME280;66206;0.000;0.000;2023-07-13T13:11:04;97951.40;;;29.04;19.11